Time;durP1;ratioP1;P1;durP2;ratioP2;P2;SDS_P1;SDS_P2;PMS_P1;PMS_P2;Temp;Humidity;BMP_temperature;BMP_pressure;BME280_temperature;BME280_humidity;BME280_pressure;Samples;Min_cycle;Max_cycle;Signal;HPM_P1;HPM_P2
2022/05/18 00:00:58;;;;;;;3.08;1.10;;;;;;;17.44;32.13;102325.13;5088459;28;20096;-45
2022/05/18 00:03:31;;;;;;;1.70;0.90;;;;;;;17.40;32.22;102325.41;5089152;28;20043;-48
2022/05/18 00:06:00;;;;;;;4.63;1.30;;;;;;;17.38;32.19;102328.19;5088348;28;20028;-45
2022/05/18 00:08:26;;;;;;;5.45;1.30;;;;;;;17.37;32.15;102334.44;5088978;28;20062;-47
2022/05/18 00:10:52;;;;;;;5.22;1.20;;;;;;;17.36;32.15;102340.72;5088687;28;20047;-48
2022/05/18 00:13:19;;;;;;;5.80;1.10;;;;;;;17.34;31.92;102346.13;5085203;28;20031;-48
2022/05/18 00:15:46;;;;;;;4.40;1.20;;;;;;;17.32;31.67;102355.16;5084649;28;20045;-48
2022/05/18 00:18:11;;;;;;;4.95;1.10;;;;;;;17.30;31.82;102357.91;5088200;28;20024;-50
2022/05/18 00:20:37;;;;;;;1.88;1.10;;;;;;;17.29;31.97;102361.53;5084885;28;20104;-46
2022/05/18 00:23:04;;;;;;;2.15;1.10;;;;;;;17.28;31.68;102361.59;5088957;28;20059;-49
2022/05/18 00:25:32;;;;;;;3.22;1.00;;;;;;;17.26;31.74;102358.16;5082657;28;20043;-45
2022/05/18 00:27:58;;;;;;;2.72;1.00;;;;;;;17.25;31.83;102362.66;5084327;28;20036;-49
2022/05/18 00:30:25;;;;;;;4.10;1.00;;;;;;;17.24;31.73;102365.41;5085108;28;20084;-44
2022/05/18 00:32:51;;;;;;;4.40;1.20;;;;;;;17.21;31.67;102369.97;5085808;28;20032;-49
2022/05/18 00:35:18;;;;;;;1.75;1.10;;;;;;;17.20;31.55;102372.69;5088040;28;20417;-45
2022/05/18 00:37:44;;;;;;;4.35;1.20;;;;;;;17.17;31.72;102367.56;5086232;28;20395;-46
2022/05/18 00:40:13;;;;;;;2.67;1.10;;;;;;;17.13;31.58;102366.06;5087786;28;20024;-47
2022/05/18 00:42:38;;;;;;;6.03;1.17;;;;;;;17.10;31.66;102369.72;5084239;28;20065;-45
2022/05/18 00:45:05;;;;;;;3.80;1.20;;;;;;;17.10;31.60;102372.38;5084540;28;20040;-52
2022/05/18 00:47:31;;;;;;;4.43;1.02;;;;;;;17.05;31.63;102364.69;5084531;28;20119;-45
2022/05/18 00:50:04;;;;;;;2.22;1.30;;;;;;;17.04;31.67;102372.78;5088093;28;20237;-45
2022/05/18 00:52:39;;;;;;;2.88;1.30;;;;;;;17.02;31.70;102377.31;5091917;28;20072;-46
2022/05/18 00:55:08;;;;;;;4.72;0.90;;;;;;;17.01;31.63;102379.13;5087420;28;20024;-46
2022/05/18 00:57:44;;;;;;;5.28;1.05;;;;;;;17.01;31.58;102383.59;5089874;28;20035;-49
2022/05/18 01:00:14;;;;;;;4.28;1.00;;;;;;;17.00;31.57;102390.72;5091220;28;20024;-50
2022/05/18 01:02:45;;;;;;;3.97;1.17;;;;;;;16.98;31.64;102394.41;5093682;28;20696;-48
2022/05/18 01:05:14;;;;;;;3.60;1.10;;;;;;;16.95;31.36;102400.75;5092298;28;20372;-47
2022/05/18 01:07:45;;;;;;;3.90;1.50;;;;;;;16.91;31.31;102409.81;5087878;28;20043;-48
2022/05/18 01:10:11;;;;;;;4.50;0.93;;;;;;;16.90;31.33;102405.44;5090211;28;20103;-46
2022/05/18 01:12:37;;;;;;;2.95;1.30;;;;;;;16.87;31.50;102410.94;5086199;28;20114;-48
2022/05/18 01:15:07;;;;;;;6.28;1.30;;;;;;;16.82;31.44;102408.53;5094311;28;20440;-50
2022/05/18 01:17:39;;;;;;;3.67;1.30;;;;;;;16.81;31.49;102411.31;5083216;28;20043;-45
2022/05/18 01:20:08;;;;;;;4.13;1.25;;;;;;;16.77;31.42;102422.09;5093422;28;20842;-45
2022/05/18 01:22:43;;;;;;;3.17;1.30;;;;;;;16.75;31.32;102429.31;5088578;27;20032;-48
2022/05/18 01:25:30;;;;;;;2.13;1.02;;;;;;;16.70;31.34;102423.41;5096487;28;20027;-47
2022/05/18 01:27:58;;;;;;;2.33;1.05;;;;;;;16.66;31.38;102427.19;5086771;28;20058;-51
2022/05/18 01:30:25;;;;;;;2.83;1.10;;;;;;;16.61;31.43;102422.16;5090804;28;20034;-45
2022/05/18 01:32:53;;;;;;;2.88;1.08;;;;;;;16.58;31.24;102418.78;5094133;28;20026;-45
2022/05/18 01:35:22;;;;;;;2.80;0.93;;;;;;;16.56;31.35;102424.19;5090185;28;21122;-51
2022/05/18 01:37:49;;;;;;;5.55;1.10;;;;;;;16.53;31.35;102423.53;5085796;28;20115;-44
2022/05/18 01:40:25;;;;;;;3.38;1.13;;;;;;;16.51;31.64;102428.91;5086541;28;20111;-47
2022/05/18 01:43:26;;;;;;;6.28;1.08;;;;;;;16.50;31.67;102429.84;5094932;28;20072;-49
2022/05/18 01:45:58;;;;;;;2.10;1.08;;;;;;;16.47;31.47;102430.03;5063355;28;20115;-45
2022/05/18 01:48:30;;;;;;;3.05;1.17;;;;;;;16.44;31.45;102424.88;5090198;28;20039;-51
2022/05/18 01:50:58;;;;;;;1.63;0.60;;;;;;;16.42;31.34;102429.44;5090350;28;20036;-47
2022/05/18 01:53:24;;;;;;;1.45;1.00;;;;;;;16.39;31.61;102430.47;5086079;28;20027;-55
2022/05/18 01:55:49;;;;;;;3.83;1.85;;;;;;;16.40;31.61;102429.53;5089050;28;20035;-46
2022/05/18 01:58:15;;;;;;;2.05;1.02;;;;;;;16.38;31.42;102433.19;5083848;28;20035;-47
2022/05/18 02:00:44;;;;;;;1.50;1.08;;;;;;;16.35;31.52;102439.53;5089330;28;20049;-45
2022/05/18 02:03:10;;;;;;;2.83;1.13;;;;;;;16.33;31.72;102440.56;5097374;28;20024;-49
2022/05/18 02:05:36;;;;;;;4.38;1.52;;;;;;;16.30;31.68;102441.59;5095852;28;20028;-49
2022/05/18 02:08:02;;;;;;;4.53;1.27;;;;;;;16.26;31.63;102438.25;5086346;28;20035;-50
2022/05/18 02:10:28;;;;;;;5.03;1.42;;;;;;;16.24;31.42;102440.13;5087549;28;21210;-50
2022/05/18 02:12:53;;;;;;;2.78;1.08;;;;;;;16.19;31.67;102434.19;5090098;28;20507;-48
2022/05/18 02:15:19;;;;;;;2.85;1.02;;;;;;;16.15;31.64;102438.81;5082674;28;20402;-47
2022/05/18 02:17:45;;;;;;;1.75;1.30;;;;;;;16.12;31.76;102441.63;5090464;28;20074;-48
2022/05/18 02:20:12;;;;;;;2.13;1.10;;;;;;;16.09;31.65;102444.50;5083688;28;20039;-49
2022/05/18 02:22:38;;;;;;;3.85;1.25;;;;;;;16.06;31.81;102449.09;5085325;28;20127;-49
2022/05/18 02:25:04;;;;;;;3.45;0.95;;;;;;;16.03;31.85;102443.97;5082904;28;20118;-48
2022/05/18 02:27:30;;;;;;;5.55;1.08;;;;;;;16.00;31.88;102460.91;5091527;28;20077;-49
2022/05/18 02:29:56;;;;;;;2.05;0.90;;;;;;;15.95;32.11;102458.50;5088916;28;20028;-50
2022/05/18 02:32:22;;;;;;;4.53;1.02;;;;;;;15.93;32.18;102464.84;5082195;28;20576;-50
2022/05/18 02:34:48;;;;;;;2.38;1.10;;;;;;;15.92;32.05;102465.78;5086775;28;20051;-49
2022/05/18 02:37:13;;;;;;;1.45;1.02;;;;;;;15.90;32.10;102465.00;5084102;28;20059;-51
2022/05/18 02:39:39;;;;;;;3.70;1.13;;;;;;;15.89;32.06;102463.28;5084913;28;20097;-49
2022/05/18 02:42:04;;;;;;;3.75;1.00;;;;;;;15.88;32.16;102466.88;5088600;28;20028;-48
2022/05/18 02:44:30;;;;;;;1.70;1.25;;;;;;;15.89;32.24;102468.56;5088476;28;20395;-47
2022/05/18 02:46:59;;;;;;;2.67;1.10;;;;;;;15.90;32.27;102459.69;5084375;28;20057;-49
2022/05/18 02:49:26;;;;;;;4.23;1.23;;;;;;;15.88;32.24;102458.91;5087042;28;20036;-46
2022/05/18 02:51:52;;;;;;;4.53;1.20;;;;;;;15.83;32.17;102470.56;5086143;28;20567;-48
2022/05/18 02:57:04;;;;;;;1.70;1.10;;;;;;;15.80;32.36;102473.41;5076291;28;20043;-49
2022/05/18 02:59:30;;;;;;;1.92;1.10;;;;;;;15.77;32.28;102481.53;5089602;28;20066;-48
2022/05/18 03:01:56;;;;;;;1.35;0.93;;;;;;;15.75;32.17;102480.75;5082247;28;20510;-51
2022/05/18 03:04:21;;;;;;;3.28;1.33;;;;;;;15.70;32.36;102477.47;5088284;28;20055;-48
2022/05/18 03:06:47;;;;;;;3.78;1.20;;;;;;;15.67;32.49;102482.94;5090588;28;20551;-48
2022/05/18 03:09:12;;;;;;;2.03;1.08;;;;;;;15.66;32.59;102489.16;5089125;28;20028;-51
2022/05/18 03:11:38;;;;;;;2.03;1.10;;;;;;;15.64;32.54;102491.06;5093949;28;20044;-47
2022/05/18 03:14:04;;;;;;;10.55;5.63;;;;;;;15.62;32.45;102492.94;5084308;28;20407;-47
2022/05/18 03:16:30;;;;;;;10.23;6.30;;;;;;;15.59;32.54;102499.25;5086704;28;20058;-48
2022/05/18 03:18:55;;;;;;;6.00;1.48;;;;;;;15.58;32.72;102499.34;5083670;28;20053;-48
2022/05/18 03:24:07;;;;;;;6.78;1.95;;;;;;;15.59;32.57;102504.53;5088434;28;20109;-48
2022/05/18 03:26:33;;;;;;;4.13;1.38;;;;;;;15.58;32.79;102501.97;5080977;28;20032;-51
2022/05/18 03:28:59;;;;;;;4.13;1.30;;;;;;;15.55;32.78;102498.56;5081822;28;20055;-48
2022/05/18 03:31:25;;;;;;;2.10;1.00;;;;;;;15.52;32.92;102501.34;5084118;28;20063;-50
2022/05/18 03:33:51;;;;;;;8.85;1.25;;;;;;;15.54;32.85;102499.47;5079252;28;20039;-49
2022/05/18 03:36:18;;;;;;;4.70;1.60;;;;;;;15.53;32.86;102505.72;5084887;28;20032;-51
2022/05/18 03:38:46;;;;;;;4.10;1.15;;;;;;;15.52;32.84;102504.00;5084242;28;20428;-48
2022/05/18 03:41:13;;;;;;;5.70;1.35;;;;;;;15.51;32.88;102506.75;5080545;28;20503;-50
2022/05/18 03:43:39;;;;;;;2.13;1.20;;;;;;;15.51;32.87;102504.09;5080919;28;20032;-49
2022/05/18 03:46:06;;;;;;;4.82;1.52;;;;;;;15.49;33.00;102503.31;5084619;28;20508;-48
2022/05/18 03:48:33;;;;;;;4.20;1.10;;;;;;;15.51;33.08;102506.75;5084026;28;20052;-48
2022/05/18 03:51:00;;;;;;;3.47;1.25;;;;;;;15.51;33.10;102510.25;5092095;28;20036;-47
2022/05/18 03:53:26;;;;;;;5.00;1.65;;;;;;;15.53;32.96;102505.72;5085988;28;20028;-50
2022/05/18 03:55:52;;;;;;;2.40;1.30;;;;;;;15.55;33.19;102509.16;5079935;28;20027;-49
2022/05/18 03:58:18;;;;;;;3.67;1.30;;;;;;;15.54;33.11;102499.47;5084854;28;20081;-49
2022/05/18 04:00:46;;;;;;;3.08;1.50;;;;;;;15.55;33.04;102514.47;5082630;28;20086;-48
2022/05/18 04:03:13;;;;;;;1.85;1.00;;;;;;;15.56;33.03;102512.69;5084693;28;20085;-50
2022/05/18 04:05:40;;;;;;;2.75;1.38;;;;;;;15.56;33.07;102518.00;5085171;28;20069;-49
2022/05/18 04:08:07;;;;;;;2.72;1.42;;;;;;;15.57;33.06;102516.19;5083055;28;20032;-47
2022/05/18 04:10:33;;;;;;;5.13;1.65;;;;;;;15.57;33.25;102510.88;5084414;28;20508;-47
2022/05/18 04:12:59;;;;;;;3.08;1.45;;;;;;;15.55;33.11;102514.47;5087957;28;20039;-49
2022/05/18 04:15:24;;;;;;;5.90;1.60;;;;;;;15.57;33.17;102510.88;5086754;28;20218;-51
2022/05/18 04:17:50;;;;;;;3.55;1.27;;;;;;;15.57;33.27;102510.88;5081674;28;20074;-48
2022/05/18 04:20:18;;;;;;;2.40;1.23;;;;;;;15.59;33.35;102511.66;5082624;28;20400;-48
2022/05/18 04:22:44;;;;;;;4.00;2.05;;;;;;;15.58;33.33;102517.91;5075332;28;20078;-50
2022/05/18 04:25:13;;;;;;;2.97;1.85;;;;;;;15.57;33.43;102513.53;5073051;28;20032;-50
2022/05/18 04:27:41;;;;;;;3.33;1.50;;;;;;;15.57;33.29;102516.19;5075095;28;20128;-48
2022/05/18 04:30:08;;;;;;;4.53;1.20;;;;;;;15.59;33.43;102509.00;5084384;28;20044;-48
2022/05/18 04:32:33;;;;;;;4.38;1.15;;;;;;;15.63;33.29;102510.56;5085864;28;20044;-48
2022/05/18 04:34:59;;;;;;;3.58;1.25;;;;;;;15.67;33.35;102514.78;5086769;28;21280;-49
2022/05/18 04:37:24;;;;;;;1.83;1.10;;;;;;;15.68;33.02;102513.84;5082046;28;20506;-47
2022/05/18 04:39:50;;;;;;;3.47;1.30;;;;;;;15.71;33.07;102519.00;5092467;28;20077;-49
2022/05/18 04:42:16;;;;;;;2.92;1.30;;;;;;;15.74;33.29;102510.00;5083819;28;20048;-47
2022/05/18 04:44:42;;;;;;;2.70;1.38;;;;;;;15.75;33.18;102515.25;5086652;28;20033;-48
2022/05/18 04:47:07;;;;;;;3.10;1.20;;;;;;;15.76;33.01;102516.97;5090148;28;20023;-50
2022/05/18 04:49:33;;;;;;;2.92;1.20;;;;;;;15.78;33.15;102522.19;5086261;28;20028;-48
2022/05/18 04:52:00;;;;;;;3.28;1.25;;;;;;;15.81;33.06;102530.00;5083622;28;20028;-47
2022/05/18 04:54:25;;;;;;;2.38;1.27;;;;;;;15.83;33.06;102523.66;5083865;28;20028;-51
2022/05/18 04:56:51;;;;;;;4.10;1.52;;;;;;;15.87;32.89;102531.50;5090486;28;20024;-47
2022/05/18 04:59:16;;;;;;;3.35;1.40;;;;;;;15.90;32.98;102534.84;5085899;28;20077;-50
2022/05/18 05:01:43;;;;;;;2.78;1.50;;;;;;;15.93;33.03;102533.84;5091320;28;20027;-47
2022/05/18 05:04:09;;;;;;;3.75;1.20;;;;;;;15.93;33.03;102534.69;5085716;28;20038;-48
2022/05/18 05:06:43;;;;;;;1.73;1.10;;;;;;;15.95;33.03;102534.63;5086254;28;20062;-49
2022/05/18 05:09:09;;;;;;;2.97;1.20;;;;;;;15.96;32.64;102538.97;5088267;28;20527;-49
2022/05/18 05:11:35;;;;;;;10.60;2.92;;;;;;;15.98;32.74;102540.63;5085649;28;20020;-48
2022/05/18 05:14:00;;;;;;;6.43;2.47;;;;;;;16.01;32.74;102536.94;5090141;28;20391;-48
2022/05/18 05:16:28;;;;;;;4.53;2.40;;;;;;;16.06;32.96;102537.59;5088781;28;20081;-49
2022/05/18 05:18:54;;;;;;;5.45;2.10;;;;;;;16.11;32.80;102543.50;5086866;28;20024;-48
2022/05/18 05:21:20;;;;;;;6.22;2.30;;;;;;;16.14;32.31;102540.69;5089758;28;20451;-47
2022/05/18 05:23:46;;;;;;;7.95;1.70;;;;;;;16.18;32.61;102532.56;5085257;28;20035;-50
2022/05/18 05:26:12;;;;;;;2.50;1.20;;;;;;;16.24;32.59;102537.56;5090314;28;20077;-47
2022/05/18 05:28:38;;;;;;;4.45;1.40;;;;;;;16.27;32.65;102537.38;5089577;28;20035;-52
2022/05/18 05:31:05;;;;;;;10.32;4.05;;;;;;;16.33;32.75;102536.19;5089107;28;20028;-48
2022/05/18 05:33:32;;;;;;;7.43;3.28;;;;;;;16.35;32.69;102532.50;5090715;28;20377;-48
2022/05/18 05:35:58;;;;;;;6.63;1.95;;;;;;;16.38;32.72;102529.69;5086361;28;20081;-49
2022/05/18 05:38:24;;;;;;;6.15;2.40;;;;;;;16.43;32.55;102530.28;5093342;28;20507;-49
2022/05/18 05:40:50;;;;;;;4.00;2.60;;;;;;;16.48;32.50;102537.16;5096046;28;20043;-50
2022/05/18 05:43:16;;;;;;;3.10;1.33;;;;;;;16.51;32.55;102531.69;5092498;28;20027;-47
2022/05/18 05:45:41;;;;;;;4.93;2.20;;;;;;;16.54;32.30;102536.84;5094028;28;20024;-49
2022/05/18 05:48:09;;;;;;;5.50;2.42;;;;;;;16.59;32.55;102532.09;5096968;28;20041;-49
2022/05/18 05:50:34;;;;;;;5.05;1.73;;;;;;;16.63;32.49;102525.69;5090738;28;20034;-48
2022/05/18 05:53:00;;;;;;;3.33;2.03;;;;;;;16.66;32.53;102525.53;5090248;28;20028;-47
2022/05/18 05:55:27;;;;;;;2.88;1.52;;;;;;;16.69;32.46;102528.03;5092820;28;20392;-48
2022/05/18 05:57:56;;;;;;;7.53;2.10;;;;;;;16.70;32.24;102526.22;5089651;28;21160;-49
2022/05/18 06:00:23;;;;;;;7.20;1.63;;;;;;;16.73;32.17;102526.88;5087280;28;20032;-49
2022/05/18 06:02:50;;;;;;;3.85;1.20;;;;;;;16.77;32.13;102524.94;5090912;28;20024;-48
2022/05/18 06:05:17;;;;;;;2.03;1.05;;;;;;;16.81;32.16;102531.78;5088884;28;20032;-48
2022/05/18 06:07:43;;;;;;;3.80;1.30;;;;;;;16.86;32.20;102523.56;5088951;28;20392;-52
2022/05/18 06:10:09;;;;;;;7.85;2.47;;;;;;;16.91;32.05;102529.47;5088878;28;20030;-49
2022/05/18 06:12:34;;;;;;;5.60;2.90;;;;;;;16.95;32.11;102528.38;5093743;28;20103;-48
2022/05/18 06:15:00;;;;;;;6.68;1.70;;;;;;;16.99;32.01;102527.28;5089094;28;20103;-50
2022/05/18 06:17:26;;;;;;;2.63;1.10;;;;;;;17.02;31.87;102524.41;5091475;28;20034;-51
2022/05/18 06:19:51;;;;;;;7.72;2.60;;;;;;;17.06;32.03;102525.97;5091975;28;20023;-49
2022/05/18 06:22:17;;;;;;;5.20;1.30;;;;;;;17.10;32.05;102525.78;5091436;28;20556;-48
2022/05/18 06:24:47;;;;;;;4.80;1.50;;;;;;;17.13;32.11;102526.47;5087572;28;20024;-50
2022/05/18 06:27:13;;;;;;;1.92;1.10;;;;;;;17.15;32.08;102524.59;5090920;28;20070;-47
2022/05/18 06:29:39;;;;;;;4.90;1.30;;;;;;;17.18;31.96;102531.53;5092120;28;20024;-51
2022/05/18 06:32:05;;;;;;;4.43;1.10;;;;;;;17.19;31.94;102533.25;5091554;28;20032;-50
2022/05/18 06:34:30;;;;;;;3.05;0.95;;;;;;;17.18;31.77;102536.84;5094028;28;20078;-50
2022/05/18 06:36:56;;;;;;;5.13;1.23;;;;;;;17.21;31.96;102542.00;5092513;28;20066;-48
2022/05/18 06:39:21;;;;;;;4.25;1.15;;;;;;;17.21;31.83;102542.88;5091892;28;20027;-48
2022/05/18 06:41:47;;;;;;;3.28;2.10;;;;;;;17.23;31.78;102545.44;5091937;28;20032;-47
2022/05/18 06:44:13;;;;;;;5.57;2.15;;;;;;;17.26;31.88;102547.03;5090818;28;20039;-51
2022/05/18 06:46:39;;;;;;;7.80;1.60;;;;;;;17.28;31.79;102548.69;5095237;28;20032;-48
2022/05/18 06:49:10;;;;;;;3.25;1.50;;;;;;;17.29;31.85;102542.44;5089536;28;20119;-49
2022/05/18 06:51:40;;;;;;;5.07;1.70;;;;;;;17.33;31.94;102554.56;5090159;28;20027;-49
2022/05/18 06:54:05;;;;;;;10.77;4.55;;;;;;;17.35;31.94;102552.69;5091695;28;20062;-48
2022/05/18 06:56:33;;;;;;;8.48;4.10;;;;;;;17.35;32.09;102554.50;5086325;28;20032;-49
2022/05/18 06:58:59;;;;;;;2.33;1.20;;;;;;;17.39;31.86;102555.19;5087809;28;20023;-50
2022/05/18 07:01:27;;;;;;;5.15;1.30;;;;;;;17.40;31.70;102557.75;5092560;28;20130;-51
2022/05/18 07:03:53;;;;;;;6.18;2.47;;;;;;;17.43;31.92;102554.06;5088288;28;20081;-48
2022/05/18 07:06:21;;;;;;;7.70;4.72;;;;;;;17.46;31.68;102559.22;5090826;28;20488;-48
2022/05/18 07:08:47;;;;;;;6.95;3.65;;;;;;;17.47;31.80;102556.44;5089685;28;20380;-48
2022/05/18 07:11:13;;;;;;;3.63;1.48;;;;;;;17.48;31.93;102554.63;5090591;28;20114;-48
2022/05/18 07:13:39;;;;;;;2.80;1.20;;;;;;;17.47;31.60;102558.28;5089645;28;20440;-47
2022/05/18 07:16:06;;;;;;;3.00;1.30;;;;;;;17.48;31.68;102562.63;5091281;28;20035;-48
2022/05/18 07:18:33;;;;;;;2.65;1.02;;;;;;;17.48;31.64;102555.50;5090819;28;20020;-48
2022/05/18 07:21:02;;;;;;;3.03;1.05;;;;;;;17.52;31.76;102550.84;5088618;28;20043;-48
2022/05/18 07:23:29;;;;;;;3.40;1.17;;;;;;;17.54;31.46;102548.97;5086794;28;20020;-50
2022/05/18 07:25:56;;;;;;;2.97;1.10;;;;;;;17.57;31.21;102554.13;5088466;28;20040;-49
2022/05/18 07:28:22;;;;;;;2.40;1.05;;;;;;;17.60;30.75;102561.94;5089747;28;20126;-48
2022/05/18 07:30:49;;;;;;;7.18;1.60;;;;;;;17.63;30.50;102559.06;5089679;28;20031;-50
2022/05/18 07:33:15;;;;;;;12.55;4.70;;;;;;;17.66;30.31;102561.53;5089391;28;20472;-48
2022/05/18 07:35:40;;;;;;;6.38;1.80;;;;;;;17.68;30.30;102564.97;5090470;28;20026;-49
2022/05/18 07:38:06;;;;;;;4.68;1.75;;;;;;;17.71;30.11;102563.94;5090518;28;20391;-49
2022/05/18 07:40:33;;;;;;;4.05;1.67;;;;;;;17.73;30.18;102562.03;5090727;28;20024;-49
2022/05/18 07:43:01;;;;;;;3.83;1.10;;;;;;;17.75;30.33;102565.47;5090412;28;20044;-48
2022/05/18 07:45:28;;;;;;;2.60;0.90;;;;;;;17.78;30.14;102569.75;5087804;28;20048;-48
2022/05/18 07:47:54;;;;;;;14.65;1.52;;;;;;;17.79;30.23;102560.81;5088369;28;20035;-48
2022/05/18 07:50:22;;;;;;;10.00;1.30;;;;;;;17.81;30.44;102559.78;5091424;28;20036;-48
2022/05/18 07:52:47;;;;;;;8.95;1.13;;;;;;;17.86;30.46;102561.31;5090820;28;20486;-48
2022/05/18 07:55:14;;;;;;;11.23;1.45;;;;;;;17.91;30.54;102560.09;5090713;28;20044;-50
2022/05/18 07:57:40;;;;;;;3.28;1.20;;;;;;;17.95;30.46;102561.59;5086065;28;20035;-50
2022/05/18 08:00:08;;;;;;;5.13;1.45;;;;;;;17.98;30.33;102561.47;5089804;28;20020;-52
2022/05/18 08:02:33;;;;;;;6.22;2.17;;;;;;;18.01;30.40;102559.56;5092858;28;20034;-50
2022/05/18 08:04:59;;;;;;;15.82;7.65;;;;;;;18.03;30.30;102560.34;5088648;28;20029;-48
2022/05/18 08:07:25;;;;;;;10.52;2.58;;;;;;;18.05;30.38;102561.09;5087954;28;20031;-48
2022/05/18 08:15:19;;;;;;;16.52;2.25;;;;;;;18.08;30.58;102560.88;5082731;28;20035;-48
2022/05/18 08:17:46;;;;;;;6.45;1.25;;;;;;;18.10;30.69;102559.00;5082037;28;20039;-49
2022/05/18 08:20:15;;;;;;;3.97;0.95;;;;;;;18.13;30.51;102564.13;5086726;28;20045;-48
2022/05/18 08:22:41;;;;;;;5.23;1.20;;;;;;;18.12;30.52;102563.31;5082576;28;20040;-51
2022/05/18 08:25:08;;;;;;;7.28;1.40;;;;;;;18.13;30.63;102570.34;5086257;28;20036;-48
2022/05/18 08:27:34;;;;;;;4.65;1.33;;;;;;;18.15;30.58;102564.91;5081773;28;20020;-47
2022/05/18 08:30:04;;;;;;;6.10;1.20;;;;;;;18.16;30.50;102555.09;5083654;28;20029;-48
2022/05/18 08:32:30;;;;;;;4.35;1.20;;;;;;;18.18;30.55;102561.19;5087693;28;21319;-47
2022/05/18 08:34:56;;;;;;;3.08;1.40;;;;;;;18.20;30.57;102552.16;5082964;28;20036;-54
2022/05/18 08:37:22;;;;;;;2.53;1.40;;;;;;;18.23;30.60;102549.28;5087858;28;20534;-48
2022/05/18 08:39:50;;;;;;;2.20;1.20;;;;;;;18.26;30.59;102549.13;5083452;28;20020;-48
2022/05/18 08:42:16;;;;;;;1.90;1.17;;;;;;;18.28;30.52;102549.88;5083428;28;20020;-48
2022/05/18 08:44:41;;;;;;;8.82;4.90;;;;;;;18.30;30.74;102548.94;5083996;28;20076;-48
2022/05/18 08:47:28;;;;;;;3.45;1.35;;;;;;;18.31;30.73;102535.50;5085940;28;20060;-50
2022/05/18 08:50:00;;;;;;;4.65;1.60;;;;;;;18.34;30.44;102537.13;5086033;28;20065;-49
2022/05/18 08:52:58;;;;;;;5.43;2.20;;;;;;;18.36;30.49;102533.41;5080889;28;20035;-48
2022/05/18 08:55:41;;;;;;;2.45;1.05;;;;;;;18.40;30.40;102528.75;5083505;28;20107;-49
2022/05/18 08:58:11;;;;;;;5.05;1.17;;;;;;;18.43;30.45;102533.88;5081135;28;20071;-48
2022/05/18 09:00:40;;;;;;;;;;;;;;;18.45;30.52;102536.47;5084406;28;20020;-49
2022/05/18 09:03:21;;;;;;;4.78;1.02;;;;;;;18.48;30.25;102539.78;5087015;28;19977;-48
2022/05/18 09:05:55;;;;;;;2.08;1.00;;;;;;;18.50;30.36;102543.22;5087411;28;20039;-48
2022/05/18 09:10:12;;;;;;;7.90;4.47;;;;;;;18.54;30.44;102539.38;5086892;28;20020;-49
2022/05/18 09:11:33;;;;;;;1.80;1.30;;;;;;;18.61;30.24;102528.34;5089115;28;20081;-48
2022/05/18 09:13:58;;;;;;;3.72;1.10;;;;;;;18.63;30.19;102523.78;5086086;28;20036;-48
2022/05/18 09:16:27;;;;;;;2.10;1.00;;;;;;;18.66;30.21;102520.91;5087322;28;20032;-49
2022/05/18 09:19:03;;;;;;;2.05;1.20;;;;;;;18.69;30.23;102510.03;5088156;28;20019;-48
2022/05/18 09:22:08;;;;;;;3.85;1.02;;;;;;;18.73;30.08;102509.75;5088253;28;20483;-50
2022/05/18 09:25:01;;;;;;;3.22;1.00;;;;;;;18.78;30.01;102506.78;5083505;28;20024;-49
2022/05/18 09:27:35;;;;;;;1.83;1.00;;;;;;;18.80;30.22;102509.34;5087571;28;20029;-49
2022/05/18 09:30:24;;;;;;;2.78;1.20;;;;;;;18.82;30.13;102502.97;5092066;28;20024;-48
2022/05/18 09:33:20;;;;;;;2.42;1.00;;;;;;;18.86;30.09;102515.13;5077181;28;20047;-48
2022/05/18 09:36:04;;;;;;;3.17;1.10;;;;;;;18.91;30.34;102506.81;5088797;28;20547;-48
2022/05/18 09:39:08;;;;;;;3.70;1.10;;;;;;;18.97;30.51;102505.63;5089590;28;20034;-48
2022/05/18 09:41:48;;;;;;;4.38;1.08;;;;;;;19.01;30.34;102510.66;5058654;28;20043;-49
2022/05/18 09:44:25;;;;;;;2.17;1.05;;;;;;;19.07;30.64;102513.84;5086378;28;20036;-50
2022/05/18 09:46:52;;;;;;;13.90;8.20;;;;;;;19.12;30.17;102498.41;5084572;28;20024;-49
2022/05/18 09:49:28;;;;;;;4.25;1.88;;;;;;;19.20;30.18;102498.78;5087547;28;20379;-49
2022/05/18 09:51:58;;;;;;;3.40;1.10;;;;;;;19.25;29.77;102493.13;5086921;28;20045;-49
2022/05/18 09:54:24;;;;;;;3.53;1.00;;;;;;;19.31;29.74;102490.03;5091130;28;20073;-51
2022/05/18 09:56:55;;;;;;;2.20;1.30;;;;;;;19.36;29.59;102487.06;5083145;28;20032;-49
2022/05/18 09:59:28;;;;;;;5.78;1.27;;;;;;;19.41;29.89;102483.13;5088751;28;20042;-48
2022/05/18 10:07:29;;;;;;;2.67;1.20;;;;;;;19.58;29.56;102483.78;5088047;28;20118;-50
2022/05/18 10:10:12;;;;;;;6.50;1.58;;;;;;;19.62;29.76;102488.81;5080915;28;20024;-48
2022/05/18 10:12:46;;;;;;;4.82;1.10;;;;;;;19.64;29.66;102492.22;5086062;28;20119;-49
2022/05/18 10:15:47;;;;;;;2.00;1.17;;;;;;;19.68;29.66;102490.19;5084100;28;20032;-50
2022/05/18 10:18:33;;;;;;;5.68;1.15;;;;;;;19.72;29.77;102482.81;5085587;28;20025;-50
2022/05/18 10:21:09;;;;;;;3.67;1.25;;;;;;;19.76;29.92;102487.00;5080426;28;20024;-50
2022/05/18 10:23:46;;;;;;;3.35;1.25;;;;;;;19.80;29.87;102478.66;5084916;28;20028;-51
2022/05/18 10:26:40;;;;;;;3.25;1.20;;;;;;;19.87;29.81;102475.59;5086208;28;20115;-48
2022/05/18 10:29:14;;;;;;;4.03;1.20;;;;;;;19.91;29.94;102471.72;5079952;28;20043;-48
2022/05/18 10:31:43;;;;;;;2.70;1.42;;;;;;;19.95;29.84;102478.56;5083023;28;20349;-47
2022/05/18 10:34:26;;;;;;;2.45;1.17;;;;;;;19.99;29.87;102469.38;5088554;28;20033;-48
2022/05/18 10:36:57;;;;;;;2.45;1.25;;;;;;;20.03;29.74;102473.56;5079903;28;20039;-47
2022/05/18 10:39:31;;;;;;;3.20;1.38;;;;;;;20.09;29.49;102480.28;5083103;28;20097;-48
2022/05/18 10:41:57;;;;;;;3.55;1.50;;;;;;;20.15;29.99;102473.66;5086554;28;20117;-47
2022/05/18 10:44:31;;;;;;;7.18;3.40;;;;;;;20.20;29.92;102474.16;5084735;28;20024;-47
2022/05/18 10:47:13;;;;;;;4.20;1.63;;;;;;;20.26;29.64;102457.69;5084288;28;20099;-47
2022/05/18 10:49:39;;;;;;;5.03;1.40;;;;;;;20.32;29.60;102459.94;5082747;28;20031;-47
2022/05/18 10:52:18;;;;;;;7.20;1.33;;;;;;;20.38;29.47;102450.59;5084905;28;20024;-48
2022/05/18 10:54:54;;;;;;;2.97;1.33;;;;;;;20.40;29.64;102454.88;5085465;28;20410;-47
2022/05/18 10:57:28;;;;;;;2.72;1.10;;;;;;;20.45;29.76;102451.84;5080692;28;20042;-47
2022/05/18 11:00:12;;;;;;;7.45;1.48;;;;;;;20.50;30.02;102443.47;5079481;28;20044;-47
2022/05/18 11:02:56;;;;;;;4.47;1.38;;;;;;;20.58;29.82;102454.50;5087088;28;20020;-47
2022/05/18 11:05:38;;;;;;;3.88;1.08;;;;;;;20.66;29.61;102452.09;5085012;28;20028;-49
2022/05/18 11:08:11;;;;;;;5.05;1.38;;;;;;;20.69;29.59;102446.53;5082449;28;20051;-51
2022/05/18 11:11:14;;;;;;;5.30;1.30;;;;;;;20.73;29.62;102446.28;5084465;28;20031;-51
2022/05/18 11:13:53;;;;;;;6.35;1.50;;;;;;;20.78;29.51;102444.19;5085172;28;20097;-51
2022/05/18 11:16:21;;;;;;;5.57;1.50;;;;;;;20.85;29.53;102440.94;5085858;28;20471;-49
2022/05/18 11:19:14;;;;;;;4.00;1.25;;;;;;;20.92;29.41;102432.41;5087089;28;20016;-50
2022/05/18 11:21:54;;;;;;;6.07;1.30;;;;;;;20.98;29.44;102432.81;5083867;28;20025;-48
2022/05/18 11:25:06;;;;;;;2.58;1.17;;;;;;;21.04;29.14;102419.94;5084711;28;20040;-47
2022/05/18 11:28:00;;;;;;;12.15;2.08;;;;;;;21.12;29.23;102428.22;5075080;28;20552;-47
2022/05/18 11:30:41;;;;;;;5.35;1.52;;;;;;;21.20;29.10;102424.97;5082532;28;20048;-48
2022/05/18 11:33:25;;;;;;;4.50;1.35;;;;;;;21.26;28.82;102417.31;5085407;28;20111;-47
2022/05/18 11:36:11;;;;;;;11.05;6.15;;;;;;;21.33;29.09;102412.34;5081205;28;20085;-47
2022/05/18 11:38:49;;;;;;;6.30;2.00;;;;;;;21.41;29.07;102406.38;5086534;28;20061;-47
2022/05/18 11:41:23;;;;;;;4.47;1.90;;;;;;;21.47;28.96;102409.47;5085417;28;20046;-47
2022/05/18 11:44:13;;;;;;;4.18;1.40;;;;;;;21.55;28.79;102411.53;5082234;28;20054;-50
2022/05/18 11:46:39;;;;;;;7.10;1.85;;;;;;;21.60;28.79;102405.84;5086322;28;20027;-47
2022/05/18 11:49:34;;;;;;;5.10;1.45;;;;;;;21.67;28.51;102398.19;5083517;28;20028;-48
2022/05/18 11:52:20;;;;;;;6.13;1.40;;;;;;;21.74;28.83;102396.72;5084151;28;20496;-47
2022/05/18 11:55:02;;;;;;;5.72;1.40;;;;;;;21.83;28.61;102398.69;5086428;28;20426;-47